sensor_id;sensor_type;location;lat;lon;timestamp;pressure;altitude;pressure_sealevel;temperature;humidity
63715;BME280;49858;48.956;9.076;2023-02-28T00:01:23;99510.09;;;0.76;100.00
63715;BME280;49858;48.956;9.076;2023-02-28T00:03:53;99498.44;;;0.55;100.00
63715;BME280;49858;48.956;9.076;2023-02-28T00:06:21;99503.56;;;0.92;100.00
63715;BME280;49858;48.956;9.076;2023-02-28T00:08:48;99503.84;;;0.81;100.00
63715;BME280;49858;48.956;9.076;2023-02-28T00:11:16;99509.25;;;0.65;100.00
63715;BME280;49858;48.956;9.076;2023-02-28T00:13:45;99506.81;;;0.84;100.00
63715;BME280;49858;48.956;9.076;2023-02-28T00:16:15;99506.28;;;0.77;100.00
63715;BME280;49858;48.956;9.076;2023-02-28T00:18:43;99493.84;;;0.30;100.00
63715;BME280;49858;48.956;9.076;2023-02-28T00:21:13;99496.81;;;0.49;100.00
63715;BME280;49858;48.956;9.076;2023-02-28T00:23:40;99501.69;;;0.57;100.00
63715;BME280;49858;48.956;9.076;2023-02-28T00:26:08;99494.13;;;0.49;100.00
63715;BME280;49858;48.956;9.076;2023-02-28T00:28:37;99494.09;;;0.80;100.00
63715;BME280;49858;48.956;9.076;2023-02-28T00:31:04;99494.91;;;0.60;100.00
63715;BME280;49858;48.956;9.076;2023-02-28T00:33:34;99499.78;;;0.68;100.00
63715;BME280;49858;48.956;9.076;2023-02-28T00:36:04;99494.09;;;0.80;100.00
63715;BME280;49858;48.956;9.076;2023-02-28T00:38:36;99486.53;;;0.46;100.00
63715;BME280;49858;48.956;9.076;2023-02-28T00:41:05;99487.03;;;0.17;100.00
63715;BME280;49858;48.956;9.076;2023-02-28T00:43:34;99496.53;;;0.30;100.00
63715;BME280;49858;48.956;9.076;2023-02-28T00:46:03;99497.88;;;0.79;100.00
63715;BME280;49858;48.956;9.076;2023-02-28T00:48:31;99487.59;;;0.24;100.00
63715;BME280;49858;48.956;9.076;2023-02-28T00:51:00;99488.94;;;0.32;100.00
63715;BME280;49858;48.956;9.076;2023-02-28T00:53:28;99483.56;;;0.47;100.00
63715;BME280;49858;48.956;9.076;2023-02-28T00:55:58;99482.72;;;0.21;100.00
63715;BME280;49858;48.956;9.076;2023-02-28T00:58:26;99487.84;;;0.28;100.00
63715;BME280;49858;48.956;9.076;2023-02-28T01:00:54;99487.63;;;0.45;100.00
63715;BME280;49858;48.956;9.076;2023-02-28T01:03:22;99489.22;;;0.36;100.00
63715;BME280;49858;48.956;9.076;2023-02-28T01:05:51;99485.47;;;0.57;100.00
63715;BME280;49858;48.956;9.076;2023-02-28T01:08:19;99488.69;;;0.39;100.00
63715;BME280;49858;48.956;9.076;2023-02-28T01:10:49;99488.16;;;0.62;100.00
63715;BME280;49858;48.956;9.076;2023-02-28T01:13:18;99489.22;;;0.46;100.00
63715;BME280;49858;48.956;9.076;2023-02-28T01:15:49;99482.47;;;0.38;100.00
63715;BME280;49858;48.956;9.076;2023-02-28T01:18:19;99488.44;;;0.76;100.00
63715;BME280;49858;48.956;9.076;2023-02-28T01:20:47;99474.03;;;0.09;100.00
63715;BME280;49858;48.956;9.076;2023-02-28T01:23:15;99485.97;;;0.69;100.00
63715;BME280;49858;48.956;9.076;2023-02-28T01:25:43;99483.00;;;0.61;100.00
63715;BME280;49858;48.956;9.076;2023-02-28T01:28:11;99478.13;;;0.42;100.00
63715;BME280;49858;48.956;9.076;2023-02-28T01:30:40;99479.78;;;0.43;100.00
63715;BME280;49858;48.956;9.076;2023-02-28T01:33:08;99481.34;;;0.14;100.00
63715;BME280;49858;48.956;9.076;2023-02-28T01:35:37;99475.97;;;0.39;100.00
63715;BME280;49858;48.956;9.076;2023-02-28T01:38:04;99474.34;;;0.33;100.00
63715;BME280;49858;48.956;9.076;2023-02-28T01:40:48;99476.78;;;0.14;100.00
63715;BME280;49858;48.956;9.076;2023-02-28T01:43:20;99474.03;;;0.09;100.00
63715;BME280;49858;48.956;9.076;2023-02-28T01:45:50;99480.56;;;0.49;100.00
63715;BME280;49858;48.956;9.076;2023-02-28T01:48:19;99476.78;;;0.35;100.00
63715;BME280;49858;48.956;9.076;2023-02-28T01:50:48;99472.19;;;0.20;100.00
63715;BME280;49858;48.956;9.076;2023-02-28T01:53:21;99477.31;;;0.06;100.00
63715;BME280;49858;48.956;9.076;2023-02-28T01:55:51;99470.28;;;0.20;100.00
63715;BME280;49858;48.956;9.076;2023-02-28T01:58:20;99471.38;;;0.45;100.00
63715;BME280;49858;48.956;9.076;2023-02-28T02:00:50;99476.22;;;0.07;100.00
63715;BME280;49858;48.956;9.076;2023-02-28T02:03:20;99468.94;;;0.33;100.00
63715;BME280;49858;48.956;9.076;2023-02-28T02:05:47;99462.97;;;0.16;100.00
63715;BME280;49858;48.956;9.076;2023-02-28T02:08:19;99470.44;;;-0.37;100.00
63715;BME280;49858;48.956;9.076;2023-02-28T02:10:48;99463.78;;;0.11;100.00
63715;BME280;49858;48.956;9.076;2023-02-28T02:13:45;99456.19;;;0.03;100.00
63715;BME280;49858;48.956;9.076;2023-02-28T02:16:34;99458.38;;;0.06;100.00
63715;BME280;49858;48.956;9.076;2023-02-28T02:19:15;99456.75;;;0.15;100.00
63715;BME280;49858;48.956;9.076;2023-02-28T02:22:12;99450.78;;;0.13;100.00
63715;BME280;49858;48.956;9.076;2023-02-28T02:25:00;99450.81;;;0.29;100.00
63715;BME280;49858;48.956;9.076;2023-02-28T02:27:50;99465.41;;;0.07;100.00
63715;BME280;49858;48.956;9.076;2023-02-28T02:30:35;99455.66;;;0.11;100.00
63715;BME280;49858;48.956;9.076;2023-02-28T02:33:26;99451.88;;;0.22;100.00
63715;BME280;49858;48.956;9.076;2023-02-28T02:36:03;99454.28;;;0.14;100.00
63715;BME280;49858;48.956;9.076;2023-02-28T02:38:38;99446.47;;;0.17;100.00
63715;BME280;49858;48.956;9.076;2023-02-28T02:41:13;99455.13;;;0.14;100.00
63715;BME280;49858;48.956;9.076;2023-02-28T02:43:48;99450.78;;;0.23;100.00
63715;BME280;49858;48.956;9.076;2023-02-28T02:46:19;99455.13;;;0.35;100.00
63715;BME280;49858;48.956;9.076;2023-02-28T02:48:47;99453.78;;;0.58;100.00
63715;BME280;49858;48.956;9.076;2023-02-28T02:51:20;99455.13;;;0.45;100.00
63715;BME280;49858;48.956;9.076;2023-02-28T02:54:02;99444.59;;;0.48;100.00
63715;BME280;49858;48.956;9.076;2023-02-28T02:56:33;99448.63;;;0.36;100.00
63715;BME280;49858;48.956;9.076;2023-02-28T02:59:06;99452.16;;;0.57;100.00
63715;BME280;49858;48.956;9.076;2023-02-28T03:01:37;99451.09;;;0.47;100.00
63715;BME280;49858;48.956;9.076;2023-02-28T03:04:10;99451.88;;;0.22;100.00
63715;BME280;49858;48.956;9.076;2023-02-28T03:06:41;99446.97;;;0.70;100.00
63715;BME280;49858;48.956;9.076;2023-02-28T03:09:09;99448.38;;;0.53;100.00
63715;BME280;49858;48.956;9.076;2023-02-28T03:11:40;99455.38;;;0.79;100.00
63715;BME280;49858;48.956;9.076;2023-02-28T03:14:20;99448.91;;;0.55;100.00
63715;BME280;49858;48.956;9.076;2023-02-28T03:17:10;99446.19;;;0.14;100.00
63715;BME280;49858;48.956;9.076;2023-02-28T03:19:52;99446.47;;;0.53;100.00
63715;BME280;49858;48.956;9.076;2023-02-28T03:22:40;99444.03;;;0.62;100.00
63715;BME280;49858;48.956;9.076;2023-02-28T03:25:20;99442.69;;;0.44;100.00
63715;BME280;49858;48.956;9.076;2023-02-28T03:28:00;99446.75;;;0.16;100.00
63715;BME280;49858;48.956;9.076;2023-02-28T03:30:36;99451.06;;;0.42;100.00
63715;BME280;49858;48.956;9.076;2023-02-28T03:33:08;99452.13;;;0.01;100.00
63715;BME280;49858;48.956;9.076;2023-02-28T03:35:42;99451.88;;;0.33;100.00
63715;BME280;49858;48.956;9.076;2023-02-28T03:38:15;99444.84;;;0.52;100.00
63715;BME280;49858;48.956;9.076;2023-02-28T03:40:48;99446.47;;;0.48;100.00
63715;BME280;49858;48.956;9.076;2023-02-28T03:43:21;99450.78;;;0.23;100.00
63715;BME280;49858;48.956;9.076;2023-02-28T03:45:51;99446.72;;;0.67;100.00
63715;BME280;49858;48.956;9.076;2023-02-28T03:48:24;99440.50;;;0.66;100.00
63715;BME280;49858;48.956;9.076;2023-02-28T03:50:55;99451.88;;;0.58;100.00
63715;BME280;49858;48.956;9.076;2023-02-28T03:53:29;99448.59;;;0.82;100.00
63715;BME280;49858;48.956;9.076;2023-02-28T03:56:03;99448.34;;;0.68;100.00
63715;BME280;49858;48.956;9.076;2023-02-28T03:58:38;99444.28;;;0.70;100.00
63715;BME280;49858;48.956;9.076;2023-02-28T04:01:13;99448.06;;;0.23;100.00
63715;BME280;49858;48.956;9.076;2023-02-28T04:03:43;99455.13;;;0.75;100.00
63715;BME280;49858;48.956;9.076;2023-02-28T04:06:15;99452.13;;;0.51;100.00
63715;BME280;49858;48.956;9.076;2023-02-28T04:08:46;99453.13;;;1.07;100.00
63715;BME280;49858;48.956;9.076;2023-02-28T04:11:20;99462.94;;;0.92;100.00
63715;BME280;49858;48.956;9.076;2023-02-28T04:13:48;99461.06;;;0.83;100.00
63715;BME280;49858;48.956;9.076;2023-02-28T04:16:17;99462.06;;;1.07;100.00
63715;BME280;49858;48.956;9.076;2023-02-28T04:19:00;99465.59;;;1.02;100.00
63715;BME280;49858;48.956;9.076;2023-02-28T04:21:30;99466.63;;;1.22;100.00
63715;BME280;49858;48.956;9.076;2023-02-28T04:24:01;99471.88;;;0.93;100.00
63715;BME280;49858;48.956;9.076;2023-02-28T04:26:29;99462.97;;;0.72;100.00
63715;BME280;49858;48.956;9.076;2023-02-28T04:28:57;99457.50;;;0.97;100.00
63715;BME280;49858;48.956;9.076;2023-02-28T04:31:26;99469.34;;;1.22;100.00
63715;BME280;49858;48.956;9.076;2023-02-28T04:33:54;99466.41;;;1.03;100.00
63715;BME280;49858;48.956;9.076;2023-02-28T04:36:22;99460.81;;;1.54;100.00
63715;BME280;49858;48.956;9.076;2023-02-28T04:38:50;99467.75;;;1.11;100.00
63715;BME280;49858;48.956;9.076;2023-02-28T04:41:20;99458.78;;;1.25;100.00
63715;BME280;49858;48.956;9.076;2023-02-28T04:43:50;99457.91;;;1.35;100.00
63715;BME280;49858;48.956;9.076;2023-02-28T04:46:18;99462.03;;;1.27;100.00
63715;BME280;49858;48.956;9.076;2023-02-28T04:48:47;99457.28;;;0.73;100.00
63715;BME280;49858;48.956;9.076;2023-02-28T04:51:16;99459.69;;;0.95;100.00
63715;BME280;49858;48.956;9.076;2023-02-28T04:53:45;99465.28;;;1.30;100.00
63715;BME280;49858;48.956;9.076;2023-02-28T04:56:15;99462.09;;;0.97;100.00
63715;BME280;49858;48.956;9.076;2023-02-28T04:58:44;99453.69;;;1.09;100.00
63715;BME280;49858;48.956;9.076;2023-02-28T05:01:21;99457.75;;;1.01;100.00
63715;BME280;49858;48.956;9.076;2023-02-28T05:03:50;99462.97;;;0.77;100.00
63715;BME280;49858;48.956;9.076;2023-02-28T05:06:19;99464.06;;;0.71;100.00
63715;BME280;49858;48.956;9.076;2023-02-28T05:08:47;99475.66;;;0.97;100.00
63715;BME280;49858;48.956;9.076;2023-02-28T05:11:17;99467.97;;;1.30;100.00
63715;BME280;49858;48.956;9.076;2023-02-28T05:13:47;99464.81;;;0.97;100.00
63715;BME280;49858;48.956;9.076;2023-02-28T05:16:15;99461.28;;;1.01;100.00
63715;BME280;49858;48.956;9.076;2023-02-28T05:18:43;99461.72;;;1.39;100.00
63715;BME280;49858;48.956;9.076;2023-02-28T05:21:24;99452.91;;;1.68;100.00
63715;BME280;49858;48.956;9.076;2023-02-28T05:23:54;99463.91;;;1.32;100.00
63715;BME280;49858;48.956;9.076;2023-02-28T05:26:22;99461.31;;;0.86;100.00
63715;BME280;49858;48.956;9.076;2023-02-28T05:28:52;99465.34;;;1.09;100.00
63715;BME280;49858;48.956;9.076;2023-02-28T05:31:19;99462.03;;;1.17;100.00
63715;BME280;49858;48.956;9.076;2023-02-28T05:33:48;99469.13;;;1.08;100.00
63715;BME280;49858;48.956;9.076;2023-02-28T05:36:15;99470.13;;;1.38;100.00
63715;BME280;49858;48.956;9.076;2023-02-28T05:38:46;99467.50;;;1.77;100.00
63715;BME280;49858;48.956;9.076;2023-02-28T05:41:15;99473.22;;;1.00;100.00
63715;BME280;49858;48.956;9.076;2023-02-28T05:43:43;99472.03;;;1.27;100.00
63715;BME280;49858;48.956;9.076;2023-02-28T05:46:12;99471.91;;;0.77;100.00
63715;BME280;49858;48.956;9.076;2023-02-28T05:48:41;99473.75;;;0.97;100.00
63715;BME280;49858;48.956;9.076;2023-02-28T05:51:09;99473.25;;;0.80;100.00
63715;BME280;49858;48.956;9.076;2023-02-28T05:53:37;99467.25;;;0.88;100.00
63715;BME280;49858;48.956;9.076;2023-02-28T05:56:05;99477.81;;;1.00;100.00
63715;BME280;49858;48.956;9.076;2023-02-28T05:58:33;99472.16;;;0.86;100.00
63715;BME280;49858;48.956;9.076;2023-02-28T06:01:21;99475.97;;;0.85;100.00
63715;BME280;49858;48.956;9.076;2023-02-28T06:03:49;99475.16;;;0.64;100.00
63715;BME280;49858;48.956;9.076;2023-02-28T06:06:17;99467.00;;;0.95;100.00
63715;BME280;49858;48.956;9.076;2023-02-28T06:08:44;99477.25;;;1.03;100.00
63715;BME280;49858;48.956;9.076;2023-02-28T06:11:12;99480.78;;;0.93;100.00
63715;BME280;49858;48.956;9.076;2023-02-28T06:13:40;99469.72;;;0.90;100.00
63715;BME280;49858;48.956;9.076;2023-02-28T06:16:09;99478.03;;;1.24;100.00
63715;BME280;49858;48.956;9.076;2023-02-28T06:18:39;99482.09;;;1.21;100.00
63715;BME280;49858;48.956;9.076;2023-02-28T06:21:07;99482.94;;;1.12;100.00
63715;BME280;49858;48.956;9.076;2023-02-28T06:23:35;99492.38;;;1.30;100.00
63715;BME280;49858;48.956;9.076;2023-02-28T06:26:04;99497.78;;;1.30;100.00
63715;BME280;49858;48.956;9.076;2023-02-28T06:28:32;99488.03;;;1.28;100.00
63715;BME280;49858;48.956;9.076;2023-02-28T06:31:04;99492.41;;;1.19;100.00
63715;BME280;49858;48.956;9.076;2023-02-28T06:33:33;99488.94;;;0.83;100.00
63715;BME280;49858;48.956;9.076;2023-02-28T06:36:02;99494.66;;;0.76;100.00
63715;BME280;49858;48.956;9.076;2023-02-28T06:38:31;99488.97;;;0.47;100.00
63715;BME280;49858;48.956;9.076;2023-02-28T06:40:59;99488.03;;;1.34;100.00
63715;BME280;49858;48.956;9.076;2023-02-28T06:43:29;99493.47;;;1.28;100.00
63715;BME280;49858;48.956;9.076;2023-02-28T06:45:58;99495.41;;;1.18;100.00
63715;BME280;49858;48.956;9.076;2023-02-28T06:48:26;99505.09;;;1.34;100.00
63715;BME280;49858;48.956;9.076;2023-02-28T06:51:06;99512.72;;;1.32;100.00
63715;BME280;49858;48.956;9.076;2023-02-28T06:54:42;99514.56;;;1.47;100.00
63715;BME280;49858;48.956;9.076;2023-02-28T06:57:17;99518.38;;;1.36;100.00
63715;BME280;49858;48.956;9.076;2023-02-28T06:59:45;99523.50;;;1.42;100.00
63715;BME280;49858;48.956;9.076;2023-02-28T07:02:13;99524.84;;;1.45;100.00
63715;BME280;49858;48.956;9.076;2023-02-28T07:04:41;99523.63;;;0.91;100.00
63715;BME280;49858;48.956;9.076;2023-02-28T07:07:12;99522.19;;;1.24;100.00
63715;BME280;49858;48.956;9.076;2023-02-28T07:09:40;99524.81;;;1.50;100.00
63715;BME280;49858;48.956;9.076;2023-02-28T07:12:08;99520.22;;;1.56;100.00
63715;BME280;49858;48.956;9.076;2023-02-28T07:14:36;99525.97;;;1.39;100.00
63715;BME280;49858;48.956;9.076;2023-02-28T07:17:06;99520.00;;;1.42;100.00
63715;BME280;49858;48.956;9.076;2023-02-28T07:19:36;99526.03;;;1.03;100.00
63715;BME280;49858;48.956;9.076;2023-02-28T07:22:04;99530.13;;;0.90;100.00
63715;BME280;49858;48.956;9.076;2023-02-28T07:24:36;99524.91;;;1.30;100.00
63715;BME280;49858;48.956;9.076;2023-02-28T07:27:04;99526.25;;;1.22;100.00
63715;BME280;49858;48.956;9.076;2023-02-28T07:29:32;99532.00;;;0.95;100.00
63715;BME280;49858;48.956;9.076;2023-02-28T07:32:00;99525.50;;;0.96;100.00
63715;BME280;49858;48.956;9.076;2023-02-28T07:34:28;99532.78;;;1.21;100.00
63715;BME280;49858;48.956;9.076;2023-02-28T07:36:56;99532.00;;;1.10;100.00
63715;BME280;49858;48.956;9.076;2023-02-28T07:39:25;99528.56;;;1.64;100.00
63715;BME280;49858;48.956;9.076;2023-02-28T07:41:54;99540.34;;;1.34;100.00
63715;BME280;49858;48.956;9.076;2023-02-28T07:44:25;99534.38;;;1.22;100.00
63715;BME280;49858;48.956;9.076;2023-02-28T07:46:53;99537.00;;;1.58;100.00
63715;BME280;49858;48.956;9.076;2023-02-28T07:49:21;99535.22;;;1.22;100.00
63715;BME280;49858;48.956;9.076;2023-02-28T07:51:49;99542.56;;;1.92;100.00
63715;BME280;49858;48.956;9.076;2023-02-28T07:54:16;99541.69;;;1.32;100.00
63715;BME280;49858;48.956;9.076;2023-02-28T07:56:44;99543.03;;;1.34;100.00
63715;BME280;49858;48.956;9.076;2023-02-28T07:59:13;99547.31;;;1.61;100.00
63715;BME280;49858;48.956;9.076;2023-02-28T08:01:41;99543.25;;;1.53;100.00
63715;BME280;49858;48.956;9.076;2023-02-28T08:04:11;99540.44;;;1.78;100.00
63715;BME280;49858;48.956;9.076;2023-02-28T08:06:39;99540.72;;;1.77;100.00
63715;BME280;49858;48.956;9.076;2023-02-28T08:09:06;99540.63;;;1.97;100.00
63715;BME280;49858;48.956;9.076;2023-02-28T08:11:34;99543.34;;;1.27;100.00
63715;BME280;49858;48.956;9.076;2023-02-28T08:14:02;99546.53;;;1.45;100.00
63715;BME280;49858;48.956;9.076;2023-02-28T08:16:32;99541.59;;;1.67;100.00
63715;BME280;49858;48.956;9.076;2023-02-28T08:18:59;99556.00;;;1.58;100.00
63715;BME280;49858;48.956;9.076;2023-02-28T08:21:27;99554.59;;;1.75;100.00
63715;BME280;49858;48.956;9.076;2023-02-28T08:23:56;99550.22;;;1.79;100.00
63715;BME280;49858;48.956;9.076;2023-02-28T08:26:23;99551.06;;;2.29;100.00
63715;BME280;49858;48.956;9.076;2023-02-28T08:28:52;99549.53;;;2.13;100.00
63715;BME280;49858;48.956;9.076;2023-02-28T08:31:22;99555.16;;;1.67;100.00
63715;BME280;49858;48.956;9.076;2023-02-28T08:33:51;99562.91;;;1.94;100.00
63715;BME280;49858;48.956;9.076;2023-02-28T08:36:23;99550.91;;;2.05;100.00
63715;BME280;49858;48.956;9.076;2023-02-28T08:38:51;99545.22;;;2.02;100.00
63715;BME280;49858;48.956;9.076;2023-02-28T08:41:19;99552.16;;;2.28;100.00
63715;BME280;49858;48.956;9.076;2023-02-28T08:43:47;99552.22;;;2.18;100.00
63715;BME280;49858;48.956;9.076;2023-02-28T08:46:14;99553.28;;;2.22;100.00
63715;BME280;49858;48.956;9.076;2023-02-28T08:48:43;99558.66;;;2.33;100.00
63715;BME280;49858;48.956;9.076;2023-02-28T08:51:14;99559.00;;;2.16;100.00
63715;BME280;49858;48.956;9.076;2023-02-28T08:53:44;99566.44;;;2.44;100.00
63715;BME280;49858;48.956;9.076;2023-02-28T08:56:14;99556.50;;;2.24;100.00
63715;BME280;49858;48.956;9.076;2023-02-28T08:58:43;99554.84;;;2.68;99.81
63715;BME280;49858;48.956;9.076;2023-02-28T09:01:12;99557.53;;;3.07;97.64
63715;BME280;49858;48.956;9.076;2023-02-28T09:03:42;99552.75;;;2.94;95.87
63715;BME280;49858;48.956;9.076;2023-02-28T09:06:10;99550.56;;;3.54;95.06
63715;BME280;49858;48.956;9.076;2023-02-28T09:08:40;99553.16;;;3.64;94.51
63715;BME280;49858;48.956;9.076;2023-02-28T09:11:08;99556.97;;;3.63;91.48
63715;BME280;49858;48.956;9.076;2023-02-28T09:13:36;99553.09;;;3.45;90.53
63715;BME280;49858;48.956;9.076;2023-02-28T09:16:06;99551.06;;;3.80;91.11
63715;BME280;49858;48.956;9.076;2023-02-28T09:18:35;99545.66;;;4.55;87.07
63715;BME280;49858;48.956;9.076;2023-02-28T09:21:04;99545.13;;;4.91;84.57
63715;BME280;49858;48.956;9.076;2023-02-28T09:23:32;99550.00;;;5.08;82.14
63715;BME280;49858;48.956;9.076;2023-02-28T09:26:01;99545.91;;;5.24;80.67
63715;BME280;49858;48.956;9.076;2023-02-28T09:28:29;99545.31;;;4.43;82.46
63715;BME280;49858;48.956;9.076;2023-02-28T09:30:57;99546.34;;;4.09;82.07
63715;BME280;49858;48.956;9.076;2023-02-28T09:33:26;99548.22;;;3.66;86.07
63715;BME280;49858;48.956;9.076;2023-02-28T09:35:58;99550.63;;;4.16;86.42
63715;BME280;49858;48.956;9.076;2023-02-28T09:38:29;99561.41;;;4.02;85.66
63715;BME280;49858;48.956;9.076;2023-02-28T09:41:00;99561.53;;;3.44;88.76
63715;BME280;49858;48.956;9.076;2023-02-28T09:43:34;99554.69;;;3.46;90.26
63715;BME280;49858;48.956;9.076;2023-02-28T09:46:08;99557.91;;;3.53;89.98
63715;BME280;49858;48.956;9.076;2023-02-28T09:48:41;99559.75;;;3.58;88.66
63715;BME280;49858;48.956;9.076;2023-02-28T09:51:30;99556.59;;;3.22;91.04
63715;BME280;49858;48.956;9.076;2023-02-28T09:54:01;99560.31;;;3.55;90.62
63715;BME280;49858;48.956;9.076;2023-02-28T09:56:33;99567.34;;;3.32;90.29
63715;BME280;49858;48.956;9.076;2023-02-28T09:59:05;99565.19;;;3.82;88.78
63715;BME280;49858;48.956;9.076;2023-02-28T10:01:42;99564.91;;;3.83;88.14
63715;BME280;49858;48.956;9.076;2023-02-28T10:04:16;99565.41;;;3.85;88.27
63715;BME280;49858;48.956;9.076;2023-02-28T10:06:53;99574.28;;;3.72;90.72
63715;BME280;49858;48.956;9.076;2023-02-28T10:09:24;99577.63;;;3.88;87.79
63715;BME280;49858;48.956;9.076;2023-02-28T10:11:56;99561.75;;;4.38;85.95
63715;BME280;49858;48.956;9.076;2023-02-28T10:14:29;99563.72;;;3.90;90.24
63715;BME280;49858;48.956;9.076;2023-02-28T10:17:02;99560.03;;;4.42;86.41
63715;BME280;49858;48.956;9.076;2023-02-28T10:19:35;99562.88;;;4.88;82.58
63715;BME280;49858;48.956;9.076;2023-02-28T10:22:11;99560.78;;;4.48;82.93
63715;BME280;49858;48.956;9.076;2023-02-28T10:24:42;99569.44;;;4.12;84.51
63715;BME280;49858;48.956;9.076;2023-02-28T10:27:14;99568.03;;;4.90;82.02
63715;BME280;49858;48.956;9.076;2023-02-28T10:29:45;99576.22;;;4.90;79.59
63715;BME280;49858;48.956;9.076;2023-02-28T10:32:15;99565.91;;;4.87;83.09
63715;BME280;49858;48.956;9.076;2023-02-28T10:34:44;99576.09;;;4.63;82.68
63715;BME280;49858;48.956;9.076;2023-02-28T10:37:12;99578.09;;;4.76;81.81
63715;BME280;49858;48.956;9.076;2023-02-28T10:39:44;99582.84;;;4.46;82.82
63715;BME280;49858;48.956;9.076;2023-02-28T10:42:20;99576.88;;;4.82;80.79
63715;BME280;49858;48.956;9.076;2023-02-28T10:45:14;99574.56;;;4.75;84.71
63715;BME280;49858;48.956;9.076;2023-02-28T10:47:52;99570.88;;;4.28;80.81
63715;BME280;49858;48.956;9.076;2023-02-28T10:50:31;99566.09;;;4.39;84.92
63715;BME280;49858;48.956;9.076;2023-02-28T10:53:24;99569.63;;;5.56;81.35
63715;BME280;49858;48.956;9.076;2023-02-28T10:56:00;99564.72;;;7.17;70.44
63715;BME280;49858;48.956;9.076;2023-02-28T10:58:31;99560.25;;;7.21;68.30
63715;BME280;49858;48.956;9.076;2023-02-28T11:01:00;99558.09;;;7.40;67.48
63715;BME280;49858;48.956;9.076;2023-02-28T11:03:31;99553.53;;;7.27;67.06
63715;BME280;49858;48.956;9.076;2023-02-28T11:06:05;99551.44;;;7.64;62.65
63715;BME280;49858;48.956;9.076;2023-02-28T11:08:34;99549.66;;;8.08;60.92
63715;BME280;49858;48.956;9.076;2023-02-28T11:11:11;99551.53;;;8.90;58.17
63715;BME280;49858;48.956;9.076;2023-02-28T11:13:39;99542.97;;;8.49;57.33
63715;BME280;49858;48.956;9.076;2023-02-28T11:16:11;99550.25;;;8.70;57.30
63715;BME280;49858;48.956;9.076;2023-02-28T11:18:42;99541.84;;;8.58;57.08
63715;BME280;49858;48.956;9.076;2023-02-28T11:21:17;99539.81;;;9.37;54.76
63715;BME280;49858;48.956;9.076;2023-02-28T11:23:47;99545.44;;;9.49;53.93
63715;BME280;49858;48.956;9.076;2023-02-28T11:26:35;99541.47;;;10.35;50.33
63715;BME280;49858;48.956;9.076;2023-02-28T11:29:11;99535.84;;;10.23;49.18
63715;BME280;49858;48.956;9.076;2023-02-28T11:31:41;99532.09;;;10.36;49.21
63715;BME280;49858;48.956;9.076;2023-02-28T11:34:24;99541.81;;;10.55;49.36
63715;BME280;49858;48.956;9.076;2023-02-28T11:36:54;99530.88;;;10.46;49.61
63715;BME280;49858;48.956;9.076;2023-02-28T11:39:23;99529.91;;;11.62;45.38
63715;BME280;49858;48.956;9.076;2023-02-28T11:42:07;99519.25;;;12.10;42.97
63715;BME280;49858;48.956;9.076;2023-02-28T11:44:48;99521.75;;;11.54;44.66
63715;BME280;49858;48.956;9.076;2023-02-28T11:47:32;99526.59;;;11.81;45.69
63715;BME280;49858;48.956;9.076;2023-02-28T11:50:16;99534.09;;;10.27;47.76
63715;BME280;49858;48.956;9.076;2023-02-28T11:52:52;99514.81;;;11.35;45.80
63715;BME280;49858;48.956;9.076;2023-02-28T11:55:24;99528.00;;;10.63;47.39
63715;BME280;49858;48.956;9.076;2023-02-28T11:58:20;99522.97;;;12.42;41.20
63715;BME280;49858;48.956;9.076;2023-02-28T12:01:05;99518.44;;;11.85;43.58
63715;BME280;49858;48.956;9.076;2023-02-28T12:03:44;99522.47;;;11.99;43.91
63715;BME280;49858;48.956;9.076;2023-02-28T12:06:22;99518.16;;;11.41;45.03
63715;BME280;49858;48.956;9.076;2023-02-28T12:09:01;99506.56;;;13.01;41.12
63715;BME280;49858;48.956;9.076;2023-02-28T12:11:39;99515.63;;;12.74;42.51
63715;BME280;49858;48.956;9.076;2023-02-28T12:14:31;99511.09;;;11.89;44.15
63715;BME280;49858;48.956;9.076;2023-02-28T12:17:22;99507.16;;;12.95;42.00
63715;BME280;49858;48.956;9.076;2023-02-28T12:20:04;99514.47;;;13.03;41.24
63715;BME280;49858;48.956;9.076;2023-02-28T12:22:41;99508.19;;;13.46;39.13
63715;BME280;49858;48.956;9.076;2023-02-28T12:25:39;99495.44;;;13.42;39.02
63715;BME280;49858;48.956;9.076;2023-02-28T12:28:15;99497.41;;;11.56;41.39
63715;BME280;49858;48.956;9.076;2023-02-28T12:30:50;99509.44;;;10.72;42.87
63715;BME280;49858;48.956;9.076;2023-02-28T12:33:22;99512.53;;;11.37;44.96
63715;BME280;49858;48.956;9.076;2023-02-28T12:35:56;99490.31;;;11.91;43.51
63715;BME280;49858;48.956;9.076;2023-02-28T12:38:27;99498.91;;;12.14;42.51
63715;BME280;49858;48.956;9.076;2023-02-28T12:41:00;99492.03;;;13.04;39.27
63715;BME280;49858;48.956;9.076;2023-02-28T12:43:33;99486.56;;;12.92;38.61
63715;BME280;49858;48.956;9.076;2023-02-28T12:46:06;99482.00;;;12.03;42.47
63715;BME280;49858;48.956;9.076;2023-02-28T12:48:40;99482.91;;;12.60;41.09
63715;BME280;49858;48.956;9.076;2023-02-28T12:51:16;99484.97;;;12.63;41.07
63715;BME280;49858;48.956;9.076;2023-02-28T12:53:56;99478.13;;;12.05;42.78
63715;BME280;49858;48.956;9.076;2023-02-28T12:56:33;99479.78;;;13.18;39.21
63715;BME280;49858;48.956;9.076;2023-02-28T12:59:10;99476.91;;;12.30;41.01
63715;BME280;49858;48.956;9.076;2023-02-28T13:01:57;99468.13;;;12.81;39.53
63715;BME280;49858;48.956;9.076;2023-02-28T13:04:40;99472.38;;;12.78;41.24
63715;BME280;49858;48.956;9.076;2023-02-28T13:07:36;99464.63;;;12.56;40.31
63715;BME280;49858;48.956;9.076;2023-02-28T13:10:08;99463.25;;;12.90;39.44
63715;BME280;49858;48.956;9.076;2023-02-28T13:12:47;99462.63;;;12.96;39.76
63715;BME280;49858;48.956;9.076;2023-02-28T13:15:18;99465.91;;;12.18;40.91
63715;BME280;49858;48.956;9.076;2023-02-28T13:17:49;99463.41;;;11.51;42.63
63715;BME280;49858;48.956;9.076;2023-02-28T13:20:19;99474.31;;;11.36;43.54
63715;BME280;49858;48.956;9.076;2023-02-28T13:22:50;99470.63;;;11.56;43.21
63715;BME280;49858;48.956;9.076;2023-02-28T13:34:36;99471.91;;;11.34;43.95
63715;BME280;49858;48.956;9.076;2023-02-28T13:37:32;99471.59;;;11.03;43.11
63715;BME280;49858;48.956;9.076;2023-02-28T13:40:27;99466.31;;;10.97;44.52